Portada
METAR-TAF:

METAR-TAF

Aeroports :

Illizi, Algèria

latitud: 26-30N, longitud: 008-25E, altitud: 558 m

Observació

L'informe es va fer fa 19 minuts, a les 11:00 UTC
Vent 8 kt del Oest/Nord-Oest
Temperatura 27°C
Pressió 1016 hPa
Visibilitat 10 km o més
sense núvols per sota de 1500 mi sense presència de cumulonimbus.

METAR: DAAP 261100Z 30008KT CAVOK 27/// Q1016

Hora: 12:19 (11:19 UTC)

Pronòstic

L'informe es va fer fa 3 hores i 19 minuts, a les 08:00 UTC
Pronòstic vàlid del 26 a les 09 UTC al 26 a les 18 UTC
Vent 6 kt del Sud/Sud-Oest
Visibilitat 10 km o més
sense núvols per sota de 1500 mi sense presència de cumulonimbus.
Evolucionant progressivament
l' 26 a les 10 UTC al 26 a les 14 UTC
Vent 10 kt del Oest/Nord-Oest

TAF: DAAP 260800Z 2609/2618 20006KT CAVOK BECMG 2610/2614 30010KT

Observacions i pronòstics meteorològics de més de 4000 aeroports (METAR i TAF).

Les estacions disponibles són els punts grocs i vermells al mapa.

Posi el ratolí al punt desitjat per veure el nom de l'estació.

Feu clic per veure les observacions i els pronòstics meteorològics.

Per canviar el mapa: feu clic els botons verds amb una creu de color negre per apropar; al botó verd amb un guió per allunyar la imatge; o en les fletxes verdes per a mapes adjacents.


METAR-TAF: